Time,TemperatureF,DewpointF,PressureIn,WindDirection,WindDirectionDegrees,WindSpeedMPH,WindSpeedGustMPH,Humidity,HourlyPrecipIn,Conditions,Clouds,dailyrainin,SoftwareType,DateUTC
2013-10-06 16:59:00,52.2,47.8,30.02,NW,315,3.0,7.0,85,0.00,,,0.07,Weather View 32 v70,2013-10-06 21:59:00,
2013-10-06 17:58:00,57.9,39.3,30.04,South,180,4.0,18.0,50,0.00,,,0.07,Weather View 32 v70,2013-10-06 22:58:00,
2013-10-06 17:59:00,57.9,39.3,30.04,NW,315,21.0,23.0,50,0.00,,,0.07,Weather View 32 v70,2013-10-06 22:59:00,
2013-10-06 18:04:00,57.8,40.2,30.04,NW,315,9.0,23.0,52,0.00,,,0.07,Weather View 32 v70,2013-10-06 23:04:00,
2013-10-06 18:09:00,57.7,41.1,30.04,NW,315,16.0,23.0,54,0.00,,,0.07,Weather View 32 v70,2013-10-06 23:09:00,
2013-10-06 18:14:00,57.5,40.0,30.04,NW,315,19.0,23.0,52,0.00,,,0.07,Weather View 32 v70,2013-10-06 23:14:00,
2013-10-06 18:19:00,57.4,39.9,30.04,NW,315,14.0,23.0,52,0.00,,,0.07,Weather View 32 v70,2013-10-06 23:19:00,
2013-10-06 18:24:00,57.4,38.9,30.04,NW,315,14.0,25.0,50,0.00,,,0.07,Weather View 32 v70,2013-10-06 23:24:00,
2013-10-06 18:29:00,57.2,38.7,30.05,NW,315,12.0,25.0,50,0.00,,,0.07,Weather View 32 v70,2013-10-06 23:29:00,
2013-10-06 18:34:00,56.9,38.9,30.05,WNW,292,12.0,25.0,51,0.00,,,0.07,Weather View 32 v70,2013-10-06 23:34:00,
2013-10-06 18:39:00,56.7,39.7,30.06,WNW,292,18.0,25.0,53,0.00,,,0.07,Weather View 32 v70,2013-10-06 23:39:00,
2013-10-06 18:44:00,56.6,38.1,30.06,NW,315,14.0,25.0,50,0.00,,,0.07,Weather View 32 v70,2013-10-06 23:44:00,
2013-10-06 18:49:00,56.3,37.9,30.06,NW,315,12.0,25.0,50,0.00,,,0.07,Weather View 32 v70,2013-10-06 23:49:00,
2013-10-06 18:54:00,55.9,38.0,30.06,West,270,4.0,25.0,51,0.00,,,0.07,Weather View 32 v70,2013-10-06 23:54:00,
2013-10-06 18:59:00,55.4,38.0,30.06,WNW,292,9.0,25.0,52,0.00,,,0.07,Weather View 32 v70,2013-10-06 23:59:00,
2013-10-06 19:04:00,55.0,38.1,30.07,WNW,292,9.0,25.0,53,0.00,,,0.07,Weather View 32 v70,2013-10-07 00:04:00,
2013-10-06 19:09:00,54.8,39.8,30.07,NW,315,9.0,25.0,57,0.00,,,0.07,Weather View 32 v70,2013-10-07 00:09:00,
2013-10-06 19:14:00,54.6,37.8,30.07,WNW,292,7.0,25.0,53,0.00,,,0.07,Weather View 32 v70,2013-10-07 00:14:00,
2013-10-06 19:19:00,54.4,38.5,30.07,WNW,292,6.0,25.0,55,0.00,,,0.07,Weather View 32 v70,2013-10-07 00:19:00,
2013-10-06 19:24:00,54.1,38.3,30.07,WNW,292,3.0,21.0,55,0.00,,,0.07,Weather View 32 v70,2013-10-07 00:24:00,
2013-10-06 19:29:00,53.9,39.0,30.08,NW,315,10.0,21.0,57,0.00,,,0.07,Weather View 32 v70,2013-10-07 00:29:00,
2013-10-06 19:34:00,53.7,38.3,30.08,WNW,292,6.0,21.0,56,0.00,,,0.07,Weather View 32 v70,2013-10-07 00:34:00,
2013-10-06 19:39:00,53.4,37.6,30.08,WNW,292,4.0,21.0,55,0.00,,,0.07,Weather View 32 v70,2013-10-07 00:39:00,
2013-10-06 19:44:00,53.1,37.8,30.08,WNW,292,4.0,20.0,56,0.00,,,0.07,Weather View 32 v70,2013-10-07 00:44:00,
2013-10-06 19:49:00,52.9,37.6,30.08,NW,315,6.0,17.0,56,0.00,,,0.07,Weather View 32 v70,2013-10-07 00:49:00,
2013-10-06 19:54:00,52.7,38.3,30.08,NW,315,4.0,14.0,58,0.00,,,0.07,Weather View 32 v70,2013-10-07 00:54:00,
2013-10-06 19:59:00,52.4,38.9,30.09,WNW,292,6.0,14.0,60,0.00,,,0.07,Weather View 32 v70,2013-10-07 00:59:00,
2013-10-06 20:04:00,52.0,38.1,30.09,West,270,2.0,14.0,59,0.00,,,0.07,Weather View 32 v70,2013-10-07 01:04:00,
2013-10-06 20:09:00,51.6,37.7,30.09,WNW,292,2.0,14.0,59,0.00,,,0.07,Weather View 32 v70,2013-10-07 01:09:00,
2013-10-06 20:14:00,51.2,38.6,30.09,WSW,247,2.0,14.0,62,0.00,,,0.07,Weather View 32 v70,2013-10-07 01:14:00,
2013-10-06 20:19:00,50.8,38.6,30.09,West,270,2.0,12.0,63,0.00,,,0.07,Weather View 32 v70,2013-10-07 01:19:00,
2013-10-06 20:24:00,50.5,38.8,30.09,NNE,22,1.0,12.0,64,0.00,,,0.07,Weather View 32 v70,2013-10-07 01:24:00,
2013-10-06 20:29:00,50.2,38.9,30.09,North,360,0.0,12.0,65,0.00,,,0.07,Weather View 32 v70,2013-10-07 01:29:00,
2013-10-06 20:34:00,49.7,38.4,30.09,NNE,22,1.0,10.0,65,0.00,,,0.07,Weather View 32 v70,2013-10-07 01:34:00,
2013-10-06 20:39:00,48.9,37.6,30.09,NNE,22,2.0,10.0,65,0.00,,,0.07,Weather View 32 v70,2013-10-07 01:39:00,
2013-10-06 20:44:00,48.4,37.5,30.09,NNE,22,1.0,9.0,66,0.00,,,0.07,Weather View 32 v70,2013-10-07 01:44:00,
2013-10-06 20:49:00,48.1,37.3,30.10,NNE,22,1.0,9.0,66,0.00,,,0.07,Weather View 32 v70,2013-10-07 01:49:00,
2013-10-06 20:54:00,47.8,37.4,30.10,NNE,22,1.0,9.0,67,0.00,,,0.07,Weather View 32 v70,2013-10-07 01:54:00,
2013-10-06 20:59:00,47.5,37.4,30.10,NNE,22,0.0,9.0,68,0.00,,,0.07,Weather View 32 v70,2013-10-07 01:59:00,
2013-10-06 21:04:00,47.3,37.3,30.10,North,360,2.0,4.0,68,0.00,,,0.07,Weather View 32 v70,2013-10-07 02:04:00,
2013-10-06 21:09:00,47.2,37.2,30.10,North,360,2.0,4.0,68,0.00,,,0.07,Weather View 32 v70,2013-10-07 02:09:00,
2013-10-06 21:14:00,47.0,37.0,30.10,North,360,2.0,3.0,68,0.00,,,0.07,Weather View 32 v70,2013-10-07 02:14:00,
2013-10-06 21:19:00,46.8,37.2,30.10,North,360,2.0,3.0,69,0.00,,,0.07,Weather View 32 v70,2013-10-07 02:19:00,
2013-10-06 21:24:00,46.6,37.0,30.10,NNE,22,2.0,3.0,69,0.00,,,0.07,Weather View 32 v70,2013-10-07 02:24:00,
2013-10-06 21:29:00,46.5,37.2,30.10,NNE,22,1.0,3.0,70,0.00,,,0.07,Weather View 32 v70,2013-10-07 02:29:00,
2013-10-06 21:34:00,46.5,37.6,30.10,NE,45,1.0,3.0,71,0.00,,,0.07,Weather View 32 v70,2013-10-07 02:34:00,
2013-10-06 21:39:00,46.3,37.4,30.10,NE,45,2.0,3.0,71,0.00,,,0.07,Weather View 32 v70,2013-10-07 02:39:00,
2013-10-06 21:44:00,46.1,37.6,30.10,NE,45,2.0,3.0,72,0.00,,,0.07,Weather View 32 v70,2013-10-07 02:44:00,
2013-10-06 21:50:00,45.9,37.4,30.10,NE,45,2.0,3.0,72,0.00,,,0.07,Weather View 32 v70,2013-10-07 02:50:00,
2013-10-06 21:55:00,45.7,37.2,30.11,NE,45,1.0,3.0,72,0.00,,,0.07,Weather View 32 v70,2013-10-07 02:55:00,
2013-10-06 22:00:00,45.7,37.2,30.11,NE,45,1.0,3.0,72,0.00,,,0.07,Weather View 32 v70,2013-10-07 03:00:00,
2013-10-06 22:05:00,45.6,37.1,30.11,NE,45,1.0,3.0,72,0.00,,,0.07,Weather View 32 v70,2013-10-07 03:05:00,
2013-10-06 22:10:00,45.5,37.3,30.11,NE,45,2.0,3.0,73,0.00,,,0.07,Weather View 32 v70,2013-10-07 03:10:00,
2013-10-06 22:15:00,45.4,37.2,30.11,NE,45,2.0,3.0,73,0.00,,,0.07,Weather View 32 v70,2013-10-07 03:15:00,
2013-10-06 22:20:00,45.3,37.1,30.12,NE,45,2.0,3.0,73,0.00,,,0.07,Weather View 32 v70,2013-10-07 03:20:00,
2013-10-06 22:25:00,45.3,37.5,30.12,NE,45,1.0,3.0,74,0.00,,,0.07,Weather View 32 v70,2013-10-07 03:25:00,
2013-10-06 22:30:00,45.2,37.4,30.12,NNE,22,2.0,3.0,74,0.00,,,0.07,Weather View 32 v70,2013-10-07 03:30:00,
2013-10-06 22:35:00,45.2,37.4,30.12,NNE,22,1.0,3.0,74,0.00,,,0.07,Weather View 32 v70,2013-10-07 03:35:00,
2013-10-06 22:40:00,45.4,37.6,30.12,NNE,22,1.0,3.0,74,0.00,,,0.07,Weather View 32 v70,2013-10-07 03:40:00,
2013-10-06 22:45:00,45.6,37.8,30.12,NNE,22,2.0,3.0,74,0.00,,,0.07,Weather View 32 v70,2013-10-07 03:45:00,
2013-10-06 22:50:00,45.6,37.4,30.12,NNE,22,0.0,3.0,73,0.00,,,0.07,Weather View 32 v70,2013-10-07 03:50:00,
2013-10-06 22:55:00,45.4,37.9,30.12,NNE,22,0.0,3.0,75,0.00,,,0.07,Weather View 32 v70,2013-10-07 03:55:00,
2013-10-06 23:00:00,45.3,38.8,30.12,NNE,22,2.0,3.0,78,0.00,,,0.07,Weather View 32 v70,2013-10-07 04:00:00,
2013-10-06 23:01:00,45.4,38.6,30.12,NNE,22,1.0,3.0,77,0.00,,,0.07,Weather View 32 v70,2013-10-07 04:01:00,
2013-10-06 23:06:00,45.8,38.3,30.12,NNE,22,1.0,4.0,75,0.00,,,0.07,Weather View 32 v70,2013-10-07 04:06:00,
2013-10-06 23:11:00,46.2,38.4,30.12,North,360,2.0,4.0,74,0.00,,,0.07,Weather View 32 v70,2013-10-07 04:11:00,
2013-10-06 23:16:00,46.5,38.3,30.12,NNE,22,2.0,4.0,73,0.00,,,0.07,Weather View 32 v70,2013-10-07 04:16:00,
2013-10-06 23:21:00,46.7,38.5,30.12,North,360,1.0,4.0,73,0.00,,,0.07,Weather View 32 v70,2013-10-07 04:21:00,
2013-10-06 23:26:00,46.7,38.5,30.12,North,360,2.0,4.0,73,0.00,,,0.07,Weather View 32 v70,2013-10-07 04:26:00,
2013-10-06 23:31:00,46.4,38.2,30.13,North,360,2.0,4.0,73,0.00,,,0.07,Weather View 32 v70,2013-10-07 04:31:00,
2013-10-06 23:36:00,46.1,38.3,30.13,North,360,2.0,4.0,74,0.00,,,0.07,Weather View 32 v70,2013-10-07 04:36:00,
2013-10-06 23:41:00,45.9,38.1,30.13,North,360,2.0,4.0,74,0.00,,,0.07,Weather View 32 v70,2013-10-07 04:41:00,
2013-10-06 23:46:00,45.7,38.2,30.13,NNE,22,2.0,4.0,75,0.00,,,0.07,Weather View 32 v70,2013-10-07 04:46:00,
2013-10-06 23:51:00,45.6,38.1,30.12,NE,45,2.0,4.0,75,0.00,,,0.07,Weather View 32 v70,2013-10-07 04:51:00,
2013-10-06 23:56:00,45.5,38.4,30.13,NNE,22,2.0,4.0,76,0.00,,,0.07,Weather View 32 v70,2013-10-07 04:56:00,